Time;durP1;ratioP1;P1;durP2;ratioP2;P2;SDS_P1;SDS_P2;PMS_P1;PMS_P2;Temp;Humidity;BMP_temperature;BMP_pressure;BME280_temperature;BME280_humidity;BME280_pressure;Samples;Min_cycle;Max_cycle;Signal;HPM_P1;HPM_P2
2023/09/20 00:00:36;;;;;;;16.58;1.83;;;;;;;;;;5078499;28;20429;-78
2023/09/20 00:03:04;;;;;;;17.38;1.80;;;;;;;;;;5080849;28;20452;-76
2023/09/20 00:05:32;;;;;;;17.38;2.20;;;;;;;;;;5071967;28;20501;-77
2023/09/20 00:08:02;;;;;;;18.42;2.30;;;;;;;;;;5088274;28;20412;-77
2023/09/20 00:10:30;;;;;;;16.10;1.85;;;;;;;;;;5077219;28;20458;-78
2023/09/20 00:12:57;;;;;;;17.45;2.05;;;;;;;;;;5083385;28;20835;-78
2023/09/20 00:15:24;;;;;;;15.70;2.60;;;;;;;;;;5083189;28;20484;-77
2023/09/20 00:17:53;;;;;;;16.00;1.70;;;;;;;;;;5065366;28;20948;-76
2023/09/20 00:20:19;;;;;;;16.73;1.70;;;;;;;;;;5074933;28;20824;-77
2023/09/20 00:22:47;;;;;;;20.52;1.88;;;;;;;;;;5099156;28;20414;-77
2023/09/20 00:25:14;;;;;;;15.43;2.30;;;;;;;;;;5084145;28;20438;-79
2023/09/20 00:27:46;;;;;;;16.98;1.80;;;;;;;;;;5099732;28;20973;-78
2023/09/20 00:30:18;;;;;;;16.73;2.20;;;;;;;;;;5098476;28;20431;-79
2023/09/20 00:32:45;;;;;;;15.80;2.00;;;;;;;;;;5079403;28;20459;-77
2023/09/20 00:35:13;;;;;;;16.42;1.90;;;;;;;;;;5082390;28;20601;-78
2023/09/20 00:37:41;;;;;;;16.50;1.90;;;;;;;;;;5101718;28;20768;-78
2023/09/20 00:40:15;;;;;;;16.50;2.10;;;;;;;;;;5078110;28;20421;-77
2023/09/20 00:43:00;;;;;;;15.50;1.80;;;;;;;;;;5083627;28;20430;-77
2023/09/20 00:45:28;;;;;;;15.73;1.92;;;;;;;;;;5099388;28;20410;-77
2023/09/20 00:47:56;;;;;;;16.87;2.20;;;;;;;;;;5099329;28;20564;-76
2023/09/20 00:50:27;;;;;;;16.40;2.00;;;;;;;;;;5095342;28;20413;-76
2023/09/20 00:52:54;;;;;;;16.50;2.10;;;;;;;;;;5102113;28;20405;-77
2023/09/20 00:55:24;;;;;;;16.77;2.70;;;;;;;;;;5062787;28;20415;-77
2023/09/20 00:57:54;;;;;;;15.80;2.22;;;;;;;;;;5078841;28;20505;-77
2023/09/20 01:00:29;;;;;;;15.20;1.83;;;;;;;;;;5066522;28;20438;-76
2023/09/20 01:02:57;;;;;;;15.52;2.00;;;;;;;;;;5073942;28;20426;-76
2023/09/20 01:05:47;;;;;;;17.50;1.80;;;;;;;;;;5098538;28;20402;-77
2023/09/20 01:08:11;;;;;;;18.52;2.20;;;;;;;;;;5122846;27;20814;-76
2023/09/20 01:10:38;;;;;;;17.20;2.00;;;;;;;;;;5107879;28;20410;-76
2023/09/20 01:13:06;;;;;;;16.85;2.60;;;;;;;;;;5102863;28;20420;-78
2023/09/20 01:15:36;;;;;;;16.60;2.00;;;;;;;;;;5083393;28;20473;-76
2023/09/20 01:18:04;;;;;;;16.30;1.90;;;;;;;;;;5098464;28;20425;-79
2023/09/20 01:20:32;;;;;;;15.05;1.70;;;;;;;;;;5098289;28;20845;-77
2023/09/20 01:23:01;;;;;;;15.00;1.60;;;;;;;;;;5086009;28;20424;-76
2023/09/20 01:25:30;;;;;;;16.25;2.10;;;;;;;;;;5083473;28;20427;-76
2023/09/20 01:27:58;;;;;;;17.77;2.25;;;;;;;;;;5086683;28;20770;-77
2023/09/20 01:30:25;;;;;;;18.02;2.10;;;;;;;;;;5108966;28;20416;-77
2023/09/20 01:32:53;;;;;;;14.70;1.70;;;;;;;;;;5080432;28;20469;-80
2023/09/20 01:35:23;;;;;;;17.75;2.40;;;;;;;;;;5091101;28;20417;-77
2023/09/20 01:37:51;;;;;;;17.80;2.40;;;;;;;;;;5073845;28;20483;-78
2023/09/20 01:40:23;;;;;;;16.37;2.03;;;;;;;;;;5072383;28;20419;-77
2023/09/20 01:42:58;;;;;;;15.85;2.00;;;;;;;;;;5107220;28;20424;-78
2023/09/20 01:45:25;;;;;;;16.40;2.35;;;;;;;;;;5101493;28;20417;-78
2023/09/20 01:47:53;;;;;;;16.20;2.38;;;;;;;;;;5077611;28;20489;-77
2023/09/20 01:50:20;;;;;;;16.42;2.60;;;;;;;;;;5098685;28;20398;-80
2023/09/20 01:52:50;;;;;;;17.17;1.85;;;;;;;;;;5081934;28;20420;-79
2023/09/20 01:55:18;;;;;;;15.07;2.10;;;;;;;;;;5098372;28;20459;-78
2023/09/20 01:57:49;;;;;;;16.70;2.80;;;;;;;;;;5100040;28;20413;-78
2023/09/20 02:00:30;;;;;;;19.02;2.40;;;;;;;;;;5102943;28;20459;-79
2023/09/20 02:02:57;;;;;;;18.15;2.33;;;;;;;;;;5091356;28;20776;-79
2023/09/20 02:05:27;;;;;;;18.23;2.28;;;;;;;;;;5102896;28;20438;-78
2023/09/20 02:07:59;;;;;;;18.05;2.50;;;;;;;;;;5100554;28;20784;-78
2023/09/20 02:10:26;;;;;;;18.50;2.20;;;;;;;;;;5105556;28;20908;-78
2023/09/20 02:12:54;;;;;;;19.25;2.70;;;;;;;;;;5079192;28;20416;-78
2023/09/20 02:15:23;;;;;;;16.50;2.20;;;;;;;;;;5092392;28;20587;-77
2023/09/20 02:17:52;;;;;;;18.20;2.20;;;;;;;;;;5093927;28;20839;-80
2023/09/20 02:20:20;;;;;;;18.15;2.00;;;;;;;;;;5098965;28;20402;-77
2023/09/20 02:22:50;;;;;;;18.13;2.57;;;;;;;;;;5108424;28;20427;-77
2023/09/20 02:25:20;;;;;;;14.90;1.77;;;;;;;;;;5089192;28;20422;-77
2023/09/20 02:27:50;;;;;;;16.80;2.10;;;;;;;;;;5090677;28;20427;-77
2023/09/20 02:30:24;;;;;;;15.30;2.00;;;;;;;;;;5098947;28;20507;-77
2023/09/20 02:33:07;;;;;;;15.55;1.90;;;;;;;;;;5092593;28;20447;-78
2023/09/20 02:35:39;;;;;;;16.13;2.10;;;;;;;;;;5094458;28;20923;-76
2023/09/20 02:38:06;;;;;;;16.70;2.10;;;;;;;;;;5096163;28;20402;-78
2023/09/20 02:40:35;;;;;;;17.38;2.40;;;;;;;;;;5097063;28;20495;-77
2023/09/20 02:43:08;;;;;;;15.75;2.08;;;;;;;;;;5072645;28;20511;-77
2023/09/20 02:45:45;;;;;;;18.85;2.28;;;;;;;;;;5096120;28;20471;-79
2023/09/20 02:48:13;;;;;;;17.45;2.40;;;;;;;;;;5099854;28;20900;-76
2023/09/20 02:50:41;;;;;;;15.85;2.15;;;;;;;;;;5101587;28;20462;-77
2023/09/20 02:53:09;;;;;;;16.15;1.90;;;;;;;;;;5088142;28;20403;-77
2023/09/20 02:55:38;;;;;;;16.83;2.00;;;;;;;;;;5104307;28;20479;-78
2023/09/20 02:58:05;;;;;;;17.70;2.75;;;;;;;;;;5099902;28;20416;-80
2023/09/20 03:00:31;;;;;;;15.90;2.00;;;;;;;;;;5085154;28;20536;-78
2023/09/20 03:03:02;;;;;;;15.77;2.50;;;;;;;;;;5104697;28;20495;-77
2023/09/20 03:05:31;;;;;;;17.60;2.50;;;;;;;;;;5092028;28;20850;-78
2023/09/20 03:08:04;;;;;;;15.38;2.08;;;;;;;;;;5075081;28;20413;-78
2023/09/20 03:10:31;;;;;;;18.30;2.20;;;;;;;;;;5088474;28;20416;-78
2023/09/20 03:13:03;;;;;;;19.23;2.30;;;;;;;;;;5070186;28;20407;-78
2023/09/20 03:15:32;;;;;;;15.85;2.00;;;;;;;;;;5101550;28;20416;-77
2023/09/20 03:18:03;;;;;;;16.20;2.17;;;;;;;;;;5103027;28;20739;-77
2023/09/20 03:20:34;;;;;;;18.63;2.30;;;;;;;;;;5071626;28;20404;-79
2023/09/20 03:23:07;;;;;;;18.30;2.30;;;;;;;;;;5107872;28;20525;-77
2023/09/20 03:25:42;;;;;;;15.90;1.92;;;;;;;;;;5097072;28;20430;-78
2023/09/20 03:28:22;;;;;;;16.65;2.08;;;;;;;;;;5099369;28;20408;-78
2023/09/20 03:30:51;;;;;;;17.52;2.20;;;;;;;;;;5106611;28;20404;-80
2023/09/20 03:33:22;;;;;;;16.50;1.90;;;;;;;;;;5097426;28;20410;-77
2023/09/20 03:35:52;;;;;;;16.00;2.40;;;;;;;;;;5086413;28;20419;-77
2023/09/20 03:38:21;;;;;;;15.52;1.80;;;;;;;;;;5079533;28;20440;-79
2023/09/20 03:40:50;;;;;;;16.00;1.70;;;;;;;;;;5097230;28;20785;-78
2023/09/20 03:43:17;;;;;;;16.70;2.00;;;;;;;;;;5093339;28;20514;-77
2023/09/20 03:45:47;;;;;;;16.60;2.03;;;;;;;;;;5088863;28;20495;-79
2023/09/20 03:48:16;;;;;;;16.10;2.30;;;;;;;;;;5105268;28;20410;-79
2023/09/20 03:50:49;;;;;;;16.30;2.20;;;;;;;;;;5101553;28;20410;-78
2023/09/20 03:53:18;;;;;;;15.55;2.30;;;;;;;;;;5077929;28;20784;-76
2023/09/20 03:55:49;;;;;;;16.00;2.00;;;;;;;;;;5094659;28;20429;-76
2023/09/20 03:58:20;;;;;;;16.98;1.92;;;;;;;;;;5092935;28;20403;-78
2023/09/20 04:00:47;;;;;;;16.90;2.00;;;;;;;;;;5084066;28;20421;-78
2023/09/20 04:03:16;;;;;;;18.10;2.13;;;;;;;;;;5082432;28;21212;-77
2023/09/20 04:05:45;;;;;;;14.90;1.80;;;;;;;;;;5078401;28;20484;-77
2023/09/20 04:08:18;;;;;;;15.27;2.00;;;;;;;;;;5085764;28;20935;-77
2023/09/20 04:10:46;;;;;;;16.02;1.98;;;;;;;;;;5091060;28;20969;-76
2023/09/20 04:13:18;;;;;;;16.08;2.10;;;;;;;;;;5065950;28;20927;-76
2023/09/20 04:15:45;;;;;;;17.15;2.50;;;;;;;;;;5105271;28;20943;-76
2023/09/20 04:18:12;;;;;;;16.63;2.10;;;;;;;;;;5081578;28;20505;-76
2023/09/20 04:20:41;;;;;;;16.50;2.38;;;;;;;;;;5064557;28;20416;-76
2023/09/20 04:23:10;;;;;;;16.65;2.20;;;;;;;;;;5098518;28;20798;-77
2023/09/20 04:25:43;;;;;;;16.75;2.00;;;;;;;;;;5094632;28;20430;-76
2023/09/20 04:28:10;;;;;;;17.50;2.90;;;;;;;;;;5101937;28;20457;-76
2023/09/20 04:30:38;;;;;;;18.90;2.70;;;;;;;;;;5092048;28;20900;-77
2023/09/20 04:33:07;;;;;;;15.18;1.95;;;;;;;;;;5101170;28;20412;-77
2023/09/20 04:35:38;;;;;;;16.05;3.00;;;;;;;;;;5094392;28;20414;-75
2023/09/20 04:38:11;;;;;;;16.43;2.27;;;;;;;;;;5082848;28;20421;-76
2023/09/20 04:40:38;;;;;;;17.67;2.50;;;;;;;;;;5100129;28;20897;-76
2023/09/20 04:43:07;;;;;;;18.30;2.10;;;;;;;;;;5099525;28;20421;-77
2023/09/20 04:45:34;;;;;;;16.00;2.10;;;;;;;;;;5096578;28;20500;-77
2023/09/20 04:48:05;;;;;;;17.10;2.00;;;;;;;;;;5081096;28;20497;-76
2023/09/20 04:50:35;;;;;;;17.02;2.10;;;;;;;;;;5106973;28;20747;-77
2023/09/20 04:53:03;;;;;;;16.38;1.90;;;;;;;;;;5092935;28;20961;-79
2023/09/20 04:55:34;;;;;;;17.20;2.00;;;;;;;;;;5097614;28;20417;-77
2023/09/20 04:58:06;;;;;;;15.68;2.10;;;;;;;;;;5070851;28;20418;-80
2023/09/20 05:00:37;;;;;;;16.40;2.00;;;;;;;;;;5095942;28;20820;-76
2023/09/20 05:03:08;;;;;;;14.53;1.80;;;;;;;;;;5095270;28;20478;-78
2023/09/20 05:05:35;;;;;;;15.87;2.10;;;;;;;;;;5077547;28;20412;-78
2023/09/20 05:08:05;;;;;;;16.60;2.40;;;;;;;;;;5104099;28;20436;-77
2023/09/20 05:10:34;;;;;;;16.83;2.10;;;;;;;;;;5078701;28;20422;-77
2023/09/20 05:13:09;;;;;;;16.30;2.30;;;;;;;;;;5102010;28;20412;-78
2023/09/20 05:15:39;;;;;;;17.40;2.70;;;;;;;;;;5092591;28;20425;-75
2023/09/20 05:18:11;;;;;;;16.00;2.17;;;;;;;;;;5089111;28;20960;-78
2023/09/20 05:20:42;;;;;;;17.05;2.08;;;;;;;;;;5109146;28;20420;-79
2023/09/20 05:23:11;;;;;;;16.73;2.58;;;;;;;;;;5081743;28;20426;-77
2023/09/20 05:25:38;;;;;;;16.00;2.30;;;;;;;;;;5102443;28;20411;-77
2023/09/20 05:28:05;;;;;;;16.60;2.25;;;;;;;;;;5085343;28;20900;-79
2023/09/20 05:30:32;;;;;;;19.00;2.43;;;;;;;;;;5101577;28;20406;-79
2023/09/20 05:33:05;;;;;;;18.45;2.20;;;;;;;;;;5077766;28;20440;-79
2023/09/20 05:35:34;;;;;;;16.58;2.28;;;;;;;;;;5097952;28;20401;-80
2023/09/20 05:38:02;;;;;;;17.95;2.60;;;;;;;;;;5099693;28;20493;-79
2023/09/20 05:40:30;;;;;;;17.17;2.53;;;;;;;;;;5083316;28;20416;-78
2023/09/20 05:42:57;;;;;;;16.30;2.20;;;;;;;;;;5080473;28;20536;-78
2023/09/20 05:45:26;;;;;;;17.50;2.00;;;;;;;;;;5078248;28;20449;-79
2023/09/20 05:47:55;;;;;;;21.35;2.97;;;;;;;;;;5099724;28;20504;-79
2023/09/20 05:50:33;;;;;;;17.83;2.30;;;;;;;;;;5088497;28;20400;-79
2023/09/20 05:53:01;;;;;;;16.30;2.00;;;;;;;;;;5100169;28;20492;-78
2023/09/20 05:55:33;;;;;;;16.90;1.95;;;;;;;;;;5093409;28;20467;-79
2023/09/20 05:58:02;;;;;;;15.27;2.40;;;;;;;;;;5080261;28;20421;-77
2023/09/20 06:00:29;;;;;;;16.05;2.10;;;;;;;;;;5075800;28;20426;-77
2023/09/20 06:02:59;;;;;;;16.88;2.30;;;;;;;;;;5100684;28;20401;-80
2023/09/20 06:05:28;;;;;;;19.40;2.80;;;;;;;;;;5102932;28;20753;-78
2023/09/20 06:07:55;;;;;;;19.13;2.05;;;;;;;;;;5101586;28;20406;-78
2023/09/20 06:10:22;;;;;;;15.77;2.20;;;;;;;;;;5101214;28;20417;-76
2023/09/20 06:12:50;;;;;;;16.70;2.30;;;;;;;;;;5102391;28;20428;-79
2023/09/20 06:15:21;;;;;;;16.50;2.65;;;;;;;;;;5084994;28;20929;-78
2023/09/20 06:17:48;;;;;;;17.30;2.23;;;;;;;;;;5086914;28;20977;-77
2023/09/20 06:20:22;;;;;;;17.30;2.40;;;;;;;;;;5101634;28;20967;-76
2023/09/20 06:22:53;;;;;;;16.50;2.22;;;;;;;;;;5099374;28;20420;-77
2023/09/20 06:25:20;;;;;;;20.20;2.38;;;;;;;;;;5095999;28;20405;-77
2023/09/20 06:27:50;;;;;;;16.05;2.00;;;;;;;;;;5099036;28;20424;-75
2023/09/20 06:30:20;;;;;;;15.63;1.90;;;;;;;;;;5101406;28;20816;-77
2023/09/20 06:32:47;;;;;;;15.00;2.00;;;;;;;;;;5097861;28;20419;-80
2023/09/20 06:35:20;;;;;;;15.07;1.80;;;;;;;;;;5095897;28;20472;-79
2023/09/20 06:37:47;;;;;;;;;;;;;;;;;;5082766;28;20430;-80
2023/09/20 06:40:31;;;;;;;15.60;2.03;;;;;;;;;;5089741;28;20822;-77
2023/09/20 06:42:58;;;;;;;16.38;1.92;;;;;;;;;;5074651;28;20491;-81
2023/09/20 06:45:27;;;;;;;14.93;1.67;;;;;;;;;;5090986;28;20416;-80
2023/09/20 06:47:55;;;;;;;16.52;2.15;;;;;;;;;;5072672;28;20438;-78
2023/09/20 06:50:23;;;;;;;15.73;2.00;;;;;;;;;;5091139;28;20422;-78
2023/09/20 06:52:51;;;;;;;18.50;1.98;;;;;;;;;;5095668;28;20406;-78
2023/09/20 06:55:20;;;;;;;16.05;2.10;;;;;;;;;;5102407;28;20472;-78
2023/09/20 06:57:47;;;;;;;15.45;2.40;;;;;;;;;;5091622;28;20473;-77
2023/09/20 07:00:29;;;;;;;19.05;2.30;;;;;;;;;;5103262;28;20416;-77
2023/09/20 07:02:57;;;;;;;14.70;1.90;;;;;;;;;;5081296;28;20414;-78
2023/09/20 07:05:28;;;;;;;16.10;2.20;;;;;;;;;;5096747;28;20906;-78
2023/09/20 07:07:58;;;;;;;16.70;2.03;;;;;;;;;;5100521;28;20802;-77
2023/09/20 07:10:31;;;;;;;14.95;2.00;;;;;;;;;;5093977;28;20405;-81
2023/09/20 07:13:00;;;;;;;17.60;2.03;;;;;;;;;;5098372;28;20951;-80
2023/09/20 07:15:28;;;;;;;16.75;1.85;;;;;;;;;;5083440;28;20508;-81
2023/09/20 07:18:11;;;;;;;15.50;2.22;;;;;;;;;;5075211;28;20403;-81
2023/09/20 07:20:39;;;;;;;16.50;2.10;;;;;;;;;;5097643;28;20413;-79
2023/09/20 07:23:10;;;;;;;16.95;1.88;;;;;;;;;;5097491;28;20409;-82
2023/09/20 07:25:40;;;;;;;18.25;2.15;;;;;;;;;;5101005;28;20407;-80
2023/09/20 07:28:07;;;;;;;15.85;2.00;;;;;;;;;;5096703;28;20754;-79
2023/09/20 07:30:39;;;;;;;16.13;1.90;;;;;;;;;;5082728;28;20409;-79
2023/09/20 07:33:11;;;;;;;15.30;1.70;;;;;;;;;;5100138;28;20410;-83
2023/09/20 07:35:46;;;;;;;14.80;1.80;;;;;;;;;;5099917;28;20476;-81
2023/09/20 07:38:27;;;;;;;15.90;1.90;;;;;;;;;;5092682;28;20875;-80
2023/09/20 07:41:13;;;;;;;15.73;1.90;;;;;;;;;;5082624;28;21109;-82
2023/09/20 07:43:44;;;;;;;16.60;1.80;;;;;;;;;;5091307;28;20432;-81
2023/09/20 07:46:13;;;;;;;15.50;1.60;;;;;;;;;;5079565;28;20426;-82
2023/09/20 07:48:47;;;;;;;14.20;1.60;;;;;;;;;;5095138;28;20747;-80
2023/09/20 07:51:20;;;;;;;15.73;2.05;;;;;;;;;;5093384;28;20410;-81
2023/09/20 07:53:53;;;;;;;15.18;1.90;;;;;;;;;;5085860;28;20413;-80
2023/09/20 07:56:23;;;;;;;15.88;1.70;;;;;;;;;;5081167;28;20402;-82
2023/09/20 07:58:51;;;;;;;15.88;1.70;;;;;;;;;;5107255;28;20401;-79
2023/09/20 08:01:24;;;;;;;16.33;1.80;;;;;;;;;;5104974;28;20396;-81
2023/09/20 08:03:52;;;;;;;15.70;2.40;;;;;;;;;;5099070;28;20501;-82
2023/09/20 08:06:23;;;;;;;16.63;2.00;;;;;;;;;;5096348;28;20400;-82
2023/09/20 08:08:50;;;;;;;15.10;1.77;;;;;;;;;;5099491;28;20424;-81
2023/09/20 08:11:16;;;;;;;15.57;2.03;;;;;;;;;;5076746;28;20539;-83
2023/09/20 08:13:48;;;;;;;15.30;2.03;;;;;;;;;;5098211;28;20516;-82
2023/09/20 08:16:15;;;;;;;15.50;2.10;;;;;;;;;;5097561;28;20400;-81
2023/09/20 08:21:29;;;;;;;15.43;1.80;;;;;;;;;;5102910;28;20476;-82
2023/09/20 09:00:27;;;;;;;16.40;2.08;;;;;;;;;;5102681;28;20416;-80
2023/09/20 09:02:57;;;;;;;15.68;1.90;;;;;;;;;;5094714;28;20418;-81
2023/09/20 09:05:27;;;;;;;16.30;1.80;;;;;;;;;;5095492;28;20419;-82
2023/09/20 09:07:55;;;;;;;16.48;1.98;;;;;;;;;;5103950;28;20511;-86
2023/09/20 09:10:22;;;;;;;15.70;1.88;;;;;;;;;;5067885;28;20915;-82
2023/09/20 09:12:49;;;;;;;15.80;2.17;;;;;;;;;;5101630;28;20509;-81
2023/09/20 09:15:18;;;;;;;19.58;2.70;;;;;;;;;;5084361;28;20445;-81
2023/09/20 09:17:46;;;;;;;15.00;1.80;;;;;;;;;;5083397;28;20433;-83
2023/09/20 09:20:15;;;;;;;17.95;2.00;;;;;;;;;;5081883;28;20413;-85
2023/09/20 09:22:43;;;;;;;16.80;1.60;;;;;;;;;;5088959;28;20490;-82
2023/09/20 09:25:11;;;;;;;14.90;1.60;;;;;;;;;;5099395;28;20548;-80
2023/09/20 09:27:39;;;;;;;15.77;1.70;;;;;;;;;;5077222;28;20763;-82
2023/09/20 09:30:08;;;;;;;14.80;1.70;;;;;;;;;;5093717;28;20803;-83
2023/09/20 09:32:35;;;;;;;15.00;1.63;;;;;;;;;;5092601;28;20830;-81
2023/09/20 09:35:03;;;;;;;14.80;1.50;;;;;;;;;;5085932;28;20422;-84
2023/09/20 09:37:32;;;;;;;16.60;1.90;;;;;;;;;;5081947;28;20415;-82
2023/09/20 09:40:02;;;;;;;15.10;1.50;;;;;;;;;;5084741;28;20408;-80
2023/09/20 09:42:29;;;;;;;14.45;1.40;;;;;;;;;;5095377;28;20825;-83
2023/09/20 09:44:56;;;;;;;16.50;1.70;;;;;;;;;;5086396;28;20499;-83
2023/09/20 09:47:26;;;;;;;15.80;1.40;;;;;;;;;;5104924;28;20715;-82
2023/09/20 09:49:53;;;;;;;17.20;1.70;;;;;;;;;;5096606;28;20406;-81
2023/09/20 09:52:23;;;;;;;14.60;1.40;;;;;;;;;;5098499;28;20483;-80
2023/09/20 09:54:55;;;;;;;15.52;1.30;;;;;;;;;;5105746;28;20432;-81
2023/09/20 09:57:23;;;;;;;15.80;1.60;;;;;;;;;;5094798;28;20886;-80
2023/09/20 09:59:51;;;;;;;15.40;1.10;;;;;;;;;;5100335;28;20422;-80
2023/09/20 10:02:18;;;;;;;15.10;1.20;;;;;;;;;;5097533;28;20461;-81
2023/09/20 10:04:50;;;;;;;14.73;1.38;;;;;;;;;;5092317;28;20416;-83
2023/09/20 10:07:18;;;;;;;14.60;1.20;;;;;;;;;;5101314;28;20485;-81
2023/09/20 10:09:48;;;;;;;16.03;1.30;;;;;;;;;;5097348;28;20418;-81
2023/09/20 10:12:21;;;;;;;15.25;1.40;;;;;;;;;;5088320;28;20428;-81
2023/09/20 10:14:48;;;;;;;14.80;1.20;;;;;;;;;;5082238;28;20475;-83
2023/09/20 10:17:16;;;;;;;14.65;1.10;;;;;;;;;;5096272;28;20487;-82
2023/09/20 10:19:43;;;;;;;16.25;1.40;;;;;;;;;;5099942;28;20418;-78
2023/09/20 10:22:10;;;;;;;15.75;1.20;;;;;;;;;;5102065;28;20416;-81
2023/09/20 10:24:50;;;;;;;16.00;1.30;;;;;;;;;;5098880;28;20408;-80
2023/09/20 10:27:19;;;;;;;14.70;1.27;;;;;;;;;;5107241;28;20438;-83
2023/09/20 10:30:01;;;;;;;14.63;1.30;;;;;;;;;;5094205;28;20415;-86
2023/09/20 10:32:31;;;;;;;15.00;1.33;;;;;;;;;;5094566;28;20444;-82
2023/09/20 10:35:20;;;;;;;14.13;1.23;;;;;;;;;;5099502;28;20436;-81
2023/09/20 10:38:02;;;;;;;14.77;1.40;;;;;;;;;;5098144;28;20396;-81
2023/09/20 10:40:49;;;;;;;15.60;1.27;;;;;;;;;;5100115;28;20401;-80
2023/09/20 10:43:20;;;;;;;14.00;1.30;;;;;;;;;;5079589;28;20420;-84
2023/09/20 10:45:49;;;;;;;14.00;1.30;;;;;;;;;;5098458;28;20557;-81
2023/09/20 10:48:17;;;;;;;15.07;1.40;;;;;;;;;;5066825;28;20502;-81
2023/09/20 10:50:45;;;;;;;15.35;1.42;;;;;;;;;;5097409;28;20421;-84
2023/09/20 10:53:12;;;;;;;13.80;1.00;;;;;;;;;;5093917;28;20498;-83
2023/09/20 10:55:40;;;;;;;14.27;1.30;;;;;;;;;;5093941;28;20475;-83
2023/09/20 10:58:07;;;;;;;15.30;1.20;;;;;;;;;;5099247;28;20728;-80
2023/09/20 11:00:36;;;;;;;15.20;1.40;;;;;;;;;;5089268;28;20432;-81
2023/09/20 11:03:06;;;;;;;15.68;1.40;;;;;;;;;;5099288;28;20403;-81
2023/09/20 11:05:34;;;;;;;15.40;1.50;;;;;;;;;;5085530;28;20412;-79
2023/09/20 11:08:07;;;;;;;14.95;1.20;;;;;;;;;;5099006;28;20415;-77
2023/09/20 11:10:34;;;;;;;14.40;1.20;;;;;;;;;;5097490;28;20480;-81
2023/09/20 11:13:03;;;;;;;14.40;1.20;;;;;;;;;;5068547;28;20439;-82
2023/09/20 11:15:29;;;;;;;14.13;1.15;;;;;;;;;;5092061;28;20860;-80
2023/09/20 11:17:59;;;;;;;15.13;1.30;;;;;;;;;;5101858;28;20442;-82
2023/09/20 11:20:28;;;;;;;14.70;1.30;;;;;;;;;;5086215;28;20507;-80
2023/09/20 11:22:55;;;;;;;17.10;1.40;;;;;;;;;;5090014;28;20905;-81
2023/09/20 11:25:22;;;;;;;15.20;1.13;;;;;;;;;;5097224;28;20425;-80
2023/09/20 11:27:49;;;;;;;14.07;1.20;;;;;;;;;;5071389;28;20471;-79
2023/09/20 11:30:18;;;;;;;14.38;1.40;;;;;;;;;;5085388;28;20970;-79
2023/09/20 11:32:45;;;;;;;15.27;1.30;;;;;;;;;;5098196;28;20402;-81
2023/09/20 11:35:30;;;;;;;15.60;1.40;;;;;;;;;;5093413;28;20817;-80
2023/09/20 11:37:59;;;;;;;13.98;1.10;;;;;;;;;;5095380;28;20915;-78
2023/09/20 11:40:25;;;;;;;14.95;1.40;;;;;;;;;;5099644;28;20438;-81
2023/09/20 11:42:52;;;;;;;15.50;1.40;;;;;;;;;;5101731;28;20506;-80
2023/09/20 11:45:21;;;;;;;15.30;1.52;;;;;;;;;;5096792;28;20808;-81
2023/09/20 11:48:15;;;;;;;15.05;1.30;;;;;;;;;;5101739;28;20423;-82
2023/09/20 11:50:44;;;;;;;14.90;1.30;;;;;;;;;;5063922;28;20415;-82
2023/09/20 11:53:12;;;;;;;15.00;1.30;;;;;;;;;;5096787;28;20498;-80
2023/09/20 11:55:41;;;;;;;14.43;1.30;;;;;;;;;;5095275;28;20400;-81
2023/09/20 11:58:09;;;;;;;14.85;1.20;;;;;;;;;;5095476;28;20467;-83
2023/09/20 12:00:38;;;;;;;14.18;1.25;;;;;;;;;;5083824;28;20416;-81
2023/09/20 12:03:04;;;;;;;13.82;1.20;;;;;;;;;;5092729;28;20427;-81
2023/09/20 12:05:33;;;;;;;14.50;1.20;;;;;;;;;;5099983;28;20411;-80
2023/09/20 12:08:02;;;;;;;13.87;1.23;;;;;;;;;;5095934;28;20414;-80
2023/09/20 12:10:29;;;;;;;16.35;1.30;;;;;;;;;;5096421;28;20458;-81
2023/09/20 12:12:58;;;;;;;14.20;1.20;;;;;;;;;;5090620;28;20407;-81
2023/09/20 12:15:25;;;;;;;16.15;1.25;;;;;;;;;;5081630;28;20412;-82
2023/09/20 12:17:53;;;;;;;20.10;1.30;;;;;;;;;;5095878;28;20399;-81
2023/09/20 12:20:20;;;;;;;14.70;1.50;;;;;;;;;;5101374;28;20465;-80
2023/09/20 12:22:46;;;;;;;15.32;2.05;;;;;;;;;;5077947;28;20400;-82
2023/09/20 12:25:16;;;;;;;14.95;1.40;;;;;;;;;;5102586;28;20419;-80
2023/09/20 12:27:43;;;;;;;14.60;1.40;;;;;;;;;;5083830;28;20453;-81
2023/09/20 12:30:12;;;;;;;14.07;1.40;;;;;;;;;;5099859;28;20873;-84
2023/09/20 12:32:42;;;;;;;15.27;1.70;;;;;;;;;;5079790;28;20426;-80
2023/09/20 12:35:09;;;;;;;14.10;1.38;;;;;;;;;;5094195;28;20393;-81
2023/09/20 12:37:36;;;;;;;14.55;1.65;;;;;;;;;;5098495;28;20458;-81
2023/09/20 12:40:10;;;;;;;14.60;1.52;;;;;;;;;;5102810;28;20408;-80
2023/09/20 12:42:39;;;;;;;14.05;1.20;;;;;;;;;;5066881;28;20515;-81
2023/09/20 12:45:07;;;;;;;15.65;1.50;;;;;;;;;;5085498;28;20408;-80
2023/09/20 12:47:34;;;;;;;14.60;1.53;;;;;;;;;;5104236;28;20407;-80
2023/09/20 12:50:03;;;;;;;14.90;1.50;;;;;;;;;;5099976;27;20972;-80
2023/09/20 12:52:31;;;;;;;15.80;1.30;;;;;;;;;;5108432;28;20948;-79
2023/09/20 12:54:58;;;;;;;14.43;1.30;;;;;;;;;;5097922;28;20790;-80
2023/09/20 12:57:26;;;;;;;16.23;1.90;;;;;;;;;;5084348;28;20985;-81
2023/09/20 12:59:56;;;;;;;13.70;1.10;;;;;;;;;;5087397;28;20419;-82
2023/09/20 13:02:27;;;;;;;14.60;1.50;;;;;;;;;;5093797;28;20414;-81
2023/09/20 13:04:59;;;;;;;13.90;1.30;;;;;;;;;;5090055;28;20421;-80
2023/09/20 13:07:29;;;;;;;16.60;1.50;;;;;;;;;;5098991;28;20423;-80
2023/09/20 13:09:58;;;;;;;15.30;1.70;;;;;;;;;;5090592;28;20447;-80
2023/09/20 13:12:25;;;;;;;15.00;1.52;;;;;;;;;;5102228;28;20463;-80
2023/09/20 13:14:53;;;;;;;14.90;1.50;;;;;;;;;;5100046;28;20428;-83
2023/09/20 13:17:20;;;;;;;14.40;1.50;;;;;;;;;;5095103;28;20400;-83
2023/09/20 13:19:47;;;;;;;14.63;1.43;;;;;;;;;;5103999;28;20449;-83
2023/09/20 13:22:14;;;;;;;14.50;1.60;;;;;;;;;;5082443;28;20528;-81
2023/09/20 13:24:42;;;;;;;14.93;1.60;;;;;;;;;;5096736;28;20903;-83
2023/09/20 13:27:09;;;;;;;16.08;1.98;;;;;;;;;;5099397;28;20423;-80
2023/09/20 13:29:36;;;;;;;17.17;1.98;;;;;;;;;;5095905;28;20435;-79
2023/09/20 13:32:08;;;;;;;15.48;1.67;;;;;;;;;;5096756;28;20402;-79
2023/09/20 13:34:34;;;;;;;14.93;1.60;;;;;;;;;;5086678;28;20851;-79
2023/09/20 13:37:01;;;;;;;16.70;2.00;;;;;;;;;;5100078;28;20398;-81
2023/09/20 13:39:28;;;;;;;15.23;1.80;;;;;;;;;;5092598;28;20802;-82
2023/09/20 13:41:54;;;;;;;15.07;1.50;;;;;;;;;;5092382;28;20417;-80
2023/09/20 13:44:22;;;;;;;15.10;1.60;;;;;;;;;;5094824;28;20457;-82
2023/09/20 13:46:50;;;;;;;15.00;1.50;;;;;;;;;;5104670;28;20424;-78
2023/09/20 13:49:18;;;;;;;14.77;1.43;;;;;;;;;;5091113;28;20465;-80
2023/09/20 13:51:45;;;;;;;16.50;1.90;;;;;;;;;;5105144;28;20424;-81
2023/09/20 13:54:12;;;;;;;15.50;1.60;;;;;;;;;;5090748;28;20546;-82
2023/09/20 13:56:44;;;;;;;15.00;1.67;;;;;;;;;;5103501;28;20402;-82
2023/09/20 13:59:11;;;;;;;16.30;1.77;;;;;;;;;;5101121;28;20425;-81
2023/09/20 14:01:39;;;;;;;14.32;1.58;;;;;;;;;;5080742;28;20418;-80
2023/09/20 14:04:07;;;;;;;16.17;1.90;;;;;;;;;;5107053;28;20529;-80
2023/09/20 14:06:35;;;;;;;15.30;1.90;;;;;;;;;;5104803;28;20428;-81
2023/09/20 14:09:04;;;;;;;14.57;1.77;;;;;;;;;;5084106;28;20415;-79
2023/09/20 14:11:33;;;;;;;14.95;1.80;;;;;;;;;;5102511;28;20459;-79
2023/09/20 14:14:02;;;;;;;15.00;1.60;;;;;;;;;;5090338;28;20453;-76
2023/09/20 14:16:29;;;;;;;14.93;2.08;;;;;;;;;;5101766;28;20455;-80
2023/09/20 14:18:57;;;;;;;14.80;1.70;;;;;;;;;;5110084;28;20444;-79
2023/09/20 14:21:28;;;;;;;14.57;1.55;;;;;;;;;;5096878;28;20414;-79
2023/09/20 14:23:58;;;;;;;15.30;1.50;;;;;;;;;;5094016;28;20862;-77
2023/09/20 14:26:27;;;;;;;15.60;2.20;;;;;;;;;;5099612;28;20441;-82
2023/09/20 14:28:55;;;;;;;14.68;1.50;;;;;;;;;;5095291;28;20495;-78
2023/09/20 14:31:22;;;;;;;14.40;1.60;;;;;;;;;;5098853;28;20421;-80
2023/09/20 14:33:49;;;;;;;14.52;1.40;;;;;;;;;;5098177;28;20424;-83
2023/09/20 14:36:16;;;;;;;17.13;2.05;;;;;;;;;;5103358;28;20399;-80
2023/09/20 14:38:43;;;;;;;14.63;1.40;;;;;;;;;;5079027;28;20828;-80
2023/09/20 14:41:11;;;;;;;15.70;1.90;;;;;;;;;;5076835;28;20429;-82
2023/09/20 14:43:38;;;;;;;14.63;1.67;;;;;;;;;;5089071;28;20485;-79
2023/09/20 14:46:06;;;;;;;15.20;1.70;;;;;;;;;;5099507;28;20481;-81
2023/09/20 14:48:33;;;;;;;14.77;1.65;;;;;;;;;;5094059;28;20412;-80
2023/09/20 14:51:03;;;;;;;15.50;1.50;;;;;;;;;;5080249;28;20578;-80
2023/09/20 14:53:32;;;;;;;15.52;1.52;;;;;;;;;;5086130;28;20443;-78
2023/09/20 14:55:59;;;;;;;14.50;1.60;;;;;;;;;;5088023;28;20451;-80
2023/09/20 14:58:29;;;;;;;15.80;1.60;;;;;;;;;;5084708;28;20410;-80
2023/09/20 15:00:55;;;;;;;14.57;1.50;;;;;;;;;;5096432;28;20921;-80
2023/09/20 15:03:22;;;;;;;15.65;1.50;;;;;;;;;;5097098;28;20886;-82
2023/09/20 15:05:52;;;;;;;15.40;1.60;;;;;;;;;;5080245;28;20431;-81
2023/09/20 15:08:21;;;;;;;14.67;1.30;;;;;;;;;;5062725;28;20430;-78
2023/09/20 15:10:48;;;;;;;14.25;1.50;;;;;;;;;;5076573;28;20415;-80
2023/09/20 15:13:14;;;;;;;14.30;1.50;;;;;;;;;;5091420;28;20880;-81
2023/09/20 15:15:45;;;;;;;14.50;1.40;;;;;;;;;;5092457;28;20414;-79
2023/09/20 15:18:12;;;;;;;14.80;1.92;;;;;;;;;;5096719;28;20486;-79
2023/09/20 15:20:41;;;;;;;14.20;1.30;;;;;;;;;;5093840;28;20412;-82
2023/09/20 15:23:08;;;;;;;15.50;1.70;;;;;;;;;;5082900;28;20890;-80